Flight Track Log - Related Links

Times and Time Zones

All times are in EDT time to prevent confusion due to time zone crossing. See the SWA2166 flight status page for this flight to view local times or setup timezone preferences in your user account.

Time Position Orientation Groundspeed Altitude Reporting Facility
EDT Latitude Longitude Course Direction KTS MPH feet Rate Location/Type
Sat 03:24:44 PM 45.6072 -122.6419 290° West 178 205 1,900  Level Seattle Center
Sat 03:25:10 PM 45.6186 -122.6739 297° West 187 215 3,000 3,443 Climbing Seattle Center
Sat 03:25:45 PM 45.6353 -122.7169 299° West 220 253 5,400 3,836 Climbing Seattle Center
Sat 03:26:11 PM 45.6475 -122.7472 300° West 204 235 6,900 3,241 Climbing Seattle Center
Sat 03:27:12 PM 45.6000 -122.7672 196° South 249 287 10,100 2,557 Climbing Seattle Center
Sat 03:28:13 PM 45.5286 -122.6856 141° Southeast 317 365 12,100 2,557 Climbing Seattle Center
Sat 03:29:14 PM 45.4514 -122.5931 140° Southeast 356 410 15,300 2,902 Climbing Seattle Center
Sat 03:30:15 PM 45.3647 -122.4944 141° Southeast 389 448 18,000 2,656 Climbing Seattle Center
Sat 03:31:16 PM 45.2758 -122.3914 141° Southeast 405 466 20,700 2,459 Climbing Seattle Center
Sat 03:32:17 PM 45.1811 -122.2853 142° Southeast 422 486 23,000 1,820 Climbing Seattle Center
Sat 03:33:18 PM 45.0847 -122.1764 141° Southeast 435 501 24,400 1,770 Climbing Seattle Center
Sat 03:34:19 PM 44.9772 -122.0947 152° Southeast 444 511 26,600 2,115 Climbing Seattle Center
Sat 03:35:20 PM 44.8539 -122.0325 160° South 432 497 28,700 1,869 Climbing Seattle Center
Sat 03:36:21 PM 44.7303 -122.0050 171° South 440 506 30,400 1,835 Climbing Seattle Center
Sat 03:37:21 PM 44.6028 -121.9750 170° South 457 526 32,400 1,983 Climbing Seattle Center
Sat 03:38:22 PM 44.4778 -121.9481 171° South 454 522 34,400 1,820 Climbing Seattle Center
Sat 03:39:23 PM 44.3408 -121.8886 163° South 454 522 36,100 1,475 Climbing Seattle Center
Sat 03:40:24 PM 44.2242 -121.8217 158° South 457 526 37,400 1,230 Climbing Seattle Center
Sat 03:41:25 PM 44.1075 -121.7531 157° South 456 525 38,600 787 Climbing Seattle Center
Sat 03:42:26 PM 43.9894 -121.6822 157° South 460 529 39,000 197 Climbing Seattle Center
Sat 03:43:27 PM 43.8706 -121.6125 157° South 464 534 39,000  Level Seattle Center
Sat 03:44:28 PM 43.7539 -121.5447 157° South 471 542 39,000  Level Seattle Center
Sat 03:45:29 PM 43.6344 -121.4761 157° South 466 536 39,000  Level Seattle Center
Sat 03:46:30 PM 43.5172 -121.4058 156° South 461 531 39,000  Level Seattle Center
Sat 03:47:31 PM 43.3992 -121.3383 157° South 460 529 39,000  Level Seattle Center
Sat 03:48:32 PM 43.2811 -121.2711 157° South 459 528 39,000  Level Seattle Center
Sat 03:49:33 PM 43.1642 -121.2033 157° South 456 525 39,000  Level Seattle Center
Sat 03:50:34 PM 43.0236 -121.1244 158° South 453 521 39,000  Level Seattle Center
Sat 03:51:35 PM 42.9072 -121.0592 158° South 451 519 39,000  Level Seattle Center
Sat 03:52:35 PM 42.7900 -120.9908 157° South 454 522 39,000  Level Seattle Center
Sat 03:53:36 PM 42.6731 -120.9228 157° South 457 526 39,000  Level Seattle Center
Sat 03:54:37 PM 42.5556 -120.8578 158° South 455 524 39,000  Level Seattle Center
Sat 03:55:38 PM 42.4372 -120.7911 157° South 458 527 39,000  Level Seattle Center
Sat 03:56:39 PM 42.3181 -120.7247 158° South 461 531 39,000  Level Seattle Center
Sat 03:57:40 PM 42.2006 -120.6581 157° South 459 528 39,000  Level Seattle Center
Sat 03:58:41 PM 42.0817 -120.5917 157° South 460 529 39,000  Level Seattle Center
Sat 03:59:42 PM 41.9633 -120.5264 158° South 459 528 39,000  Level Seattle Center
Sat 04:00:43 PM 41.8439 -120.4611 158° South 461 531 39,000  Level Seattle Center
Sat 04:01:44 PM 41.7239 -120.3958 158° South 464 534 39,000  Level Seattle Center
Sat 04:02:44 PM 41.6061 -120.3317 158° South 458 527 39,000  Level Seattle Center
Sat 04:03:45 PM 41.4897 -120.2672 157° South 453 521 39,000  Level Seattle Center
Sat 04:04:46 PM 41.3719 -120.2044 158° South 454 522 39,000  Level Seattle Center
Sat 04:05:47 PM 41.2550 -120.1411 158° South 454 522 39,000  Level Seattle Center
Sat 04:06:48 PM 41.1372 -120.0789 158° South 454 522 39,000  Level Seattle Center
Sat 04:07:48 PM 41.0222 -120.0144 157° South 451 519 39,000  Level Seattle Center
Sat 04:08:49 PM 40.9042 -119.9506 158° South 457 526 39,000  Level Seattle Center
Sat 04:09:50 PM 40.8006 -119.8586 146° Southeast 450 518 39,000  Level Seattle Center
Sat 04:10:51 PM 40.6747 -119.7547 148° Southeast 443 510 39,000  Level Seattle Center
Sat 04:11:51 PM 40.5722 -119.6700 148° Southeast 446 513 39,000  Level Seattle Center
Sat 04:13:00 PM 40.4467 -119.5658 148° Southeast 445 512 39,000  Level Oakland Center
Sat 04:14:01 PM 40.3428 -119.4808 148° Southeast 443 510 39,000  Level Oakland Center
Sat 04:15:02 PM 40.2383 -119.3969 148° Southeast 441 507 39,000  Level Oakland Center
Sat 04:16:03 PM 40.1336 -119.3119 148° Southeast 441 507 39,000  Level Oakland Center
Sat 04:17:04 PM 40.0294 -119.2272 148° Southeast 442 509 39,000  Level Oakland Center
Sat 04:18:06 PM 39.9258 -119.1431 148° Southeast 440 506 39,000  Level Oakland Center
Sat 04:19:07 PM 39.8222 -119.0583 148° Southeast 440 506 39,000  Level Oakland Center
Sat 04:20:08 PM 39.7183 -118.9756 148° Southeast 439 505 39,000  Level Oakland Center
Sat 04:21:09 PM 39.6147 -118.8928 148° Southeast 436 502 39,000  Level Oakland Center
Sat 04:22:11 PM 39.5108 -118.8106 149° Southeast 437 503 39,000  Level Oakland Center
Sat 04:23:12 PM 39.4042 -118.7253 148° Southeast 442 509 39,000  Level Oakland Center
Sat 04:24:13 PM 39.2786 -118.6258 148° Southeast 441 507 39,000  Level Oakland Center
Sat 04:25:14 PM 39.1847 -118.5517 149° Southeast 444 511 39,000 -146 Level Oakland Center
Sat 04:26:16 PM 39.0783 -118.4683 149° Southeast 447 514 38,700 -634 Descending Oakland Center
Sat 04:27:17 PM 38.9725 -118.3853 149° Southeast 447 514 37,700 -934 Descending Oakland Center
Sat 04:28:18 PM 38.8658 -118.3028 149° Southeast 446 513 36,800 -1,033 Descending Oakland Center
Sat 04:29:19 PM 38.7372 -118.2031 149° Southeast 450 518 35,600 -1,024 Descending Oakland Center
Sat 04:30:21 PM 38.6289 -118.1197 149° Southeast 453 521 34,700 -927 Descending Oakland Center
Sat 04:31:22 PM 38.5311 -118.0436 149° Southeast 453 521 33,700 -836 Descending Oakland Center
Sat 04:32:23 PM 38.4236 -117.9600 149° Southeast 453 521 33,000 -344 Descending Oakland Center
Sat 04:33:24 PM 38.3167 -117.8786 149° Southeast 450 518 33,000  Level Oakland Center
Sat 04:34:26 PM 38.1914 -117.7850 150° Southeast 436 502 33,000  Level Oakland Center
Sat 04:35:27 PM 38.0892 -117.7061 149° Southeast 433 498 33,000  Level Oakland Center
Sat 04:36:28 PM 37.9864 -117.6275 149° Southeast 435 501 33,000  Level Oakland Center
Sat 04:37:29 PM 37.8839 -117.5497 149° Southeast 434 499 33,000  Level Oakland Center
Sat 04:38:31 PM 37.7803 -117.4731 150° Southeast 434 499 33,000  Level Oakland Center
Sat 04:39:32 PM 37.6775 -117.3953 149° Southeast 433 498 33,000  Level Oakland Center
Sat 04:40:33 PM 37.5733 -117.3192 150° Southeast 434 499 33,000  Level Oakland Center
Sat 04:41:34 PM 37.4700 -117.2419 149° Southeast 433 498 33,000  Level Oakland Center
Sat 04:42:35 PM 37.3447 -117.1503 150° Southeast 435 501 33,000  Level Oakland Center
Sat 04:43:37 PM 37.2408 -117.0711 149° Southeast 440 506 33,000  Level Oakland Center
Sat 04:43:54 PM 37.2214 -117.0547 146° Southeast 435 501 33,000  Level Los Angeles Center
Sat 04:44:56 PM 37.1169 -116.9781 150° Southeast 434 499 33,000  Level Los Angeles Center
Sat 04:45:39 PM 37.0336 -116.9175 150° Southeast 434 499 33,000  Level Oakland Center
Sat 04:46:40 PM 36.9294 -116.8425 150° Southeast 429 494 33,000  Level Oakland Center
Sat 04:47:00 PM 36.8869 -116.8111 149° Southeast 435 501 33,000 -1,200 Level Los Angeles Center
Sat 04:48:15 PM 36.7878 -116.7314 147° Southeast 428 493 31,100 -1,839 Descending Los Angeles Center
Sat 04:49:17 PM 36.7000 -116.6011 130° Southeast 407 468 28,800 -2,032 Descending Los Angeles Center
Sat 04:50:19 PM 36.6267 -116.5000 132° Southeast 395 455 26,900 -1,839 Descending Los Angeles Center
Sat 04:51:21 PM 36.5572 -116.3975 130° Southeast 389 448 25,000 -1,790 Descending Los Angeles Center
Sat 04:52:23 PM 36.4872 -116.3003 132° Southeast 369 425 23,200 -1,887 Descending Los Angeles Center
Sat 04:53:25 PM 36.4069 -116.1858 131° Southeast 387 445 21,100 -2,000 Descending Los Angeles Center
Sat 04:53:56 PM 36.3664 -116.1389 137° Southeast 386 444 20,100 -1,839 Descending Los Angeles Center
Sat 04:54:27 PM 36.3336 -116.0842 127° Southeast 369 425 19,200 -1,726 Descending Los Angeles Center
Sat 04:55:09 PM 36.2844 -116.0239 135° Southeast 362 417 18,000 -1,548 Descending Los Angeles Center
Sat 04:55:29 PM 36.2683 -115.9917 122° Southeast 357 411 17,600 -1,672 Descending Los Angeles Center
Sat 04:56:10 PM 36.2219 -115.9322 134° Southeast 347 399 16,300 -1,524 Descending Los Angeles Center
Sat 04:56:32 PM 36.2053 -115.9028 125° Southeast 343 395 16,000 -436 Descending Los Angeles Center
Sat 04:57:05 PM 36.1800 -115.8444 118° Southeast 305 351 15,900 -774 Descending Los Angeles Center
Sat 04:57:34 PM 36.1689 -115.8003 107° East 299 344 15,200 -1,279 Descending Los Angeles Center
Sat 04:58:06 PM 36.1514 -115.7500 113° Southeast 293 337 14,600 -1,065 Descending Los Angeles Center
Sat 04:58:36 PM 36.1386 -115.7083 111° Southeast 291 335 14,100 -1,000 Descending Los Angeles Center
Sat 04:59:12 PM 36.1189 -115.6489 112° Southeast 285 328 13,500 -968 Descending Los Angeles Center
Sat 04:59:38 PM 36.1069 -115.6106 111° Southeast 287 330 13,100 -545 Descending Los Angeles Center
Sat 05:00:07 PM 36.0908 -115.5675 115° Southeast 285 328 13,000 -97 Descending Los Angeles Center
Sat 05:00:40 PM 36.0794 -115.5244 108° East 281 323 13,000 -492 Level Los Angeles Center
Sat 05:01:08 PM 36.0636 -115.4808 114° Southeast 279 321 12,500 -1,065 Descending Los Angeles Center
Sat 05:01:42 PM 36.0517 -115.4364 108° East 277 319 11,900 -1,377 Descending Los Angeles Center
Sat 05:02:09 PM 36.0322 -115.3847 115° Southeast 282 325 11,100 -968 Descending Los Angeles Center
Sat 05:02:44 PM 36.0289 -115.3447 96° East 281 323 10,900 -900 Descending Los Angeles Center
Sat 05:03:09 PM 36.0239 -115.2864 96° East 283 326 10,200 -1,452 Descending Los Angeles Center
Sat 05:03:46 PM 36.0208 -115.2294 94° East 282 325 9,400 -1,279 Descending Los Angeles Center
Sat 05:04:10 PM 36.0167 -115.1931 98° East 278 320 8,900 -1,120 Descending Los Angeles Center
Sat 05:05:01 PM 36.0125 -115.1167 94° East 278 320 8,000 -584 Descending Los Angeles Center
Sat 05:06:03 PM 36.0069 -115.0319 95° East 259 298 7,800 -581 Descending Los Angeles Center
Sat 05:07:05 PM 36.0039 -114.9628 93° East 222 255 6,800 -1,016 Descending Los Angeles Center
Sat 05:08:07 PM 36.0156 -114.9025 77° East 212 244 5,700 -927 Descending Los Angeles Center
Sat 05:09:08 PM 36.0703 -114.9333 336° Northwest 188 216 4,900 -774 Descending Los Angeles Center
Sat 05:10:11 PM 36.0744 -114.9961 275° West 189 217 4,100 -745 Descending Los Angeles Center
Sat 05:11:25 PM 36.0744 -115.0583 270° West 187 215 3,200 -882 Descending Los Angeles Center
Sat 05:12:27 PM 36.0744 -115.1214 270° West 169 194 2,100 -1,065 Descending Los Angeles Center
Sat 05:14:00 PM 36.0667 -115.1500 270° West  Level FlightAware Approximate

Login

Don't have an account? Register now (free) for customized features, flight alerts, and more!